createdAt,value
2018-02-21T00:02:23.526Z,126.10
2018-02-21T00:04:51.790Z,122.30
2018-02-21T00:07:20.799Z,115.70
2018-02-21T00:09:49.091Z,117.63
2018-02-21T00:12:17.356Z,118.90
2018-02-21T00:14:46.383Z,118.27
2018-02-21T00:17:14.647Z,98.53
2018-02-21T00:19:42.905Z,124.33
2018-02-21T00:22:12.994Z,101.40
2018-02-21T00:24:41.321Z,116.57
2018-02-21T00:27:09.599Z,104.70
2018-02-21T00:29:37.870Z,124.00
2018-02-21T00:32:06.117Z,112.60
2018-02-21T00:34:35.153Z,121.73
2018-02-21T00:37:03.477Z,112.17
2018-02-21T00:39:31.910Z,117.10
2018-02-21T00:42:00.464Z,120.00
2018-02-21T00:44:28.749Z,122.30
2018-02-21T00:46:57.066Z,122.67
2018-02-21T00:49:25.346Z,141.03
2018-02-21T00:51:53.619Z,108.87
2018-02-21T00:54:21.880Z,117.63
2018-02-21T00:56:50.122Z,120.43
2018-02-21T00:59:19.148Z,135.37
2018-02-21T01:01:47.430Z,116.37
2018-02-21T01:04:15.704Z,108.60
2018-02-21T01:06:44.106Z,115.13
2018-02-21T01:09:12.343Z,105.63
2018-02-21T01:11:40.977Z,122.33
2018-02-21T01:14:09.207Z,122.17
2018-02-21T01:16:37.490Z,121.13
2018-02-21T01:19:05.762Z,112.63
2018-02-21T01:21:34.019Z,108.57
2018-02-21T01:24:02.328Z,114.70
2018-02-21T01:26:30.592Z,99.80
2018-02-21T01:28:58.864Z,106.50
2018-02-21T01:31:28.061Z,110.70
2018-02-21T01:33:57.098Z,111.10
2018-02-21T01:36:25.369Z,124.70
2018-02-21T01:38:53.714Z,111.13
2018-02-21T01:41:22.010Z,121.60
2018-02-21T01:43:50.287Z,110.30
2018-02-21T01:46:19.302Z,114.60
2018-02-21T01:48:47.562Z,124.53
2018-02-21T01:51:15.813Z,113.50
2018-02-21T01:53:44.860Z,121.27
2018-02-21T01:56:13.130Z,126.77
2018-02-21T01:58:41.379Z,119.50
2018-02-21T02:01:09.654Z,107.00
2018-02-21T02:03:37.937Z,120.67
2018-02-21T02:06:06.213Z,118.67
2018-02-21T02:08:34.537Z,132.47
2018-02-21T02:11:03.606Z,121.70
2018-02-21T02:13:32.286Z,127.20
2018-02-21T02:16:00.540Z,131.23
2018-02-21T02:18:29.541Z,125.83
2018-02-21T02:20:57.831Z,115.67
2018-02-21T02:23:26.095Z,127.83
2018-02-21T02:25:55.083Z,122.50
2018-02-21T02:28:23.370Z,127.50
2018-02-21T02:30:51.629Z,124.07
2018-02-21T02:33:20.794Z,142.17
2018-02-21T02:35:49.054Z,102.30
2018-02-21T02:38:29.133Z,120.00
2018-02-21T02:40:58.909Z,118.93
2018-02-21T02:43:27.223Z,129.53
2018-02-21T02:45:55.457Z,120.80
2018-02-21T02:48:23.778Z,122.27
2018-02-21T02:50:52.025Z,135.90
2018-02-21T02:53:20.286Z,121.03
2018-02-21T02:55:48.597Z,129.53
2018-02-21T02:58:16.872Z,127.33
2018-02-21T03:00:45.152Z,121.97
2018-02-21T03:03:13.418Z,128.13
2018-02-21T03:05:41.690Z,127.57
2018-02-21T03:08:09.942Z,124.77
2018-02-21T03:10:38.218Z,112.10
2018-02-21T03:13:06.522Z,128.77
2018-02-21T03:15:34.937Z,127.47
2018-02-21T03:18:03.178Z,143.67
2018-02-21T03:20:31.429Z,136.17
2018-02-21T03:22:59.685Z,130.87
2018-02-21T03:25:28.737Z,142.07
2018-02-21T03:27:56.999Z,128.67
2018-02-21T03:30:25.282Z,117.13
2018-02-21T03:32:53.547Z,138.83
2018-02-21T03:35:21.806Z,120.13
2018-02-21T03:37:50.094Z,116.07
2018-02-21T03:40:19.152Z,137.20
2018-02-21T03:42:47.425Z,130.57
2018-02-21T03:45:16.470Z,115.33
2018-02-21T03:47:44.764Z,128.77
2018-02-21T03:50:13.007Z,119.43
2018-02-21T03:52:42.048Z,119.40
2018-02-21T03:55:10.318Z,124.40
2018-02-21T03:57:38.601Z,126.90
2018-02-21T04:00:06.874Z,123.67
2018-02-21T04:02:35.945Z,135.80
2018-02-21T04:05:04.256Z,122.47
2018-02-21T04:07:32.498Z,135.90
2018-02-21T04:10:00.795Z,134.33
2018-02-21T04:12:29.058Z,123.97
2018-02-21T04:14:57.306Z,130.07
2018-02-21T04:17:26.336Z,130.97
2018-02-21T04:19:54.573Z,145.50
2018-02-21T04:22:23.620Z,136.70
2018-02-21T04:24:51.863Z,131.23
2018-02-21T04:27:20.942Z,139.97
2018-02-21T04:29:49.194Z,135.23
2018-02-21T04:32:17.462Z,139.73
2018-02-21T04:34:45.722Z,141.47
2018-02-21T04:37:14.424Z,157.50
2018-02-21T04:39:42.712Z,142.87
2018-02-21T04:42:10.978Z,147.27
2018-02-21T04:44:39.241Z,142.27
2018-02-21T04:47:07.557Z,159.70
2018-02-21T04:49:35.834Z,154.40
2018-02-21T04:52:04.089Z,148.47
2018-02-21T04:54:50.129Z,149.07
2018-02-21T05:00:34.030Z,163.87
2018-02-21T05:03:02.301Z,162.30
2018-02-21T05:05:30.546Z,160.60
2018-02-21T05:07:59.610Z,159.80
2018-02-21T05:10:27.918Z,162.93
2018-02-21T05:12:56.952Z,158.00
2018-02-21T05:15:25.242Z,160.27
2018-02-21T05:17:53.484Z,173.13
2018-02-21T05:20:21.763Z,163.83
2018-02-21T05:22:50.789Z,167.23
2018-02-21T05:25:19.064Z,179.50
2018-02-21T05:27:47.392Z,162.53
2018-02-21T05:30:15.629Z,185.10
2018-02-21T05:32:45.020Z,162.33
2018-02-21T05:35:13.310Z,169.70
2018-02-21T05:37:43.519Z,166.30
2018-02-21T05:40:11.795Z,162.30
2018-02-21T05:42:40.119Z,182.60
2018-02-21T05:45:08.363Z,194.30
2018-02-21T05:47:36.666Z,186.63
2018-02-21T05:50:04.959Z,190.37
2018-02-21T05:52:33.235Z,182.10
2018-02-21T05:55:01.541Z,164.77
2018-02-21T05:57:30.587Z,187.53
2018-02-21T05:59:58.832Z,180.00
2018-02-21T06:02:27.091Z,172.63
2018-02-21T06:04:55.415Z,183.43
2018-02-21T06:07:25.435Z,178.70
2018-02-21T06:09:53.712Z,217.07
2018-02-21T06:12:22.000Z,204.87
2018-02-21T06:14:50.306Z,186.60
2018-02-21T06:17:19.377Z,185.60
2018-02-21T06:19:47.633Z,188.53
2018-02-21T06:22:15.915Z,188.57
2018-02-21T06:24:44.234Z,177.90
2018-02-21T06:27:13.329Z,174.77
2018-02-21T06:29:41.767Z,165.97
2018-02-21T06:32:10.061Z,178.33
2018-02-21T06:34:38.319Z,209.17
2018-02-21T06:37:06.616Z,183.37
2018-02-21T06:39:34.914Z,168.13
2018-02-21T06:42:03.185Z,174.33
2018-02-21T06:44:31.464Z,179.80
2018-02-21T06:47:00.583Z,195.70
2018-02-21T06:49:29.673Z,199.63
2018-02-21T06:51:57.930Z,202.13
2018-02-21T06:54:26.255Z,190.37
2018-02-21T06:56:54.529Z,180.13
2018-02-21T06:59:22.823Z,179.77
2018-02-21T07:01:51.187Z,199.70
2018-02-21T07:04:19.395Z,191.43
2018-02-21T07:06:47.686Z,198.83
2018-02-21T07:09:15.967Z,214.37
2018-02-21T07:11:44.266Z,199.50
2018-02-21T07:14:13.265Z,205.40
2018-02-21T07:16:41.640Z,238.13
2018-02-21T07:19:11.136Z,210.27
2018-02-21T07:21:39.382Z,185.63
2018-02-21T07:24:07.646Z,188.40
2018-02-21T07:26:36.837Z,195.13
2018-02-21T07:29:05.125Z,185.80
2018-02-21T07:31:33.407Z,195.43
2018-02-21T07:34:01.651Z,199.57
2018-02-21T07:36:29.921Z,178.30
2018-02-21T07:38:58.934Z,198.30
2018-02-21T07:41:27.188Z,207.50
2018-02-21T07:43:56.249Z,195.63
2018-02-21T07:46:24.505Z,182.00
2018-02-21T07:48:52.826Z,209.67
2018-02-21T07:51:21.117Z,193.93
2018-02-21T07:53:50.141Z,177.27
2018-02-21T07:56:18.758Z,185.37
2018-02-21T07:58:46.997Z,185.77
2018-02-21T08:01:15.257Z,188.53
2018-02-21T08:03:44.292Z,176.90
2018-02-21T08:06:12.541Z,202.87
2018-02-21T08:08:40.961Z,192.00
2018-02-21T08:11:09.243Z,195.83
2018-02-21T08:13:37.522Z,188.20
2018-02-21T08:16:05.771Z,178.47
2018-02-21T08:18:34.057Z,174.57
2018-02-21T08:21:02.965Z,162.63
2018-02-21T08:23:31.264Z,183.37
2018-02-21T08:25:59.525Z,173.70
2018-02-21T08:28:27.793Z,180.23
2018-02-21T08:30:56.042Z,188.63
2018-02-21T08:33:24.341Z,161.57
2018-02-21T08:35:52.611Z,171.07
2018-02-21T08:38:20.877Z,157.63
2018-02-21T08:40:49.130Z,158.93
2018-02-21T08:43:18.184Z,152.17
2018-02-21T08:45:46.420Z,156.70
2018-02-21T08:48:15.604Z,147.03
2018-02-21T08:50:44.665Z,137.43
2018-02-21T08:53:13.054Z,149.50
2018-02-21T08:55:41.379Z,129.00
2018-02-21T08:58:09.627Z,138.47
2018-02-21T09:00:38.682Z,132.27
2018-02-21T09:03:06.944Z,122.97
2018-02-21T09:05:35.239Z,126.67
2018-02-21T09:08:04.384Z,147.63
2018-02-21T09:10:33.414Z,111.03
2018-02-21T09:13:01.691Z,135.57
2018-02-21T09:15:29.982Z,117.47
2018-02-21T09:17:58.238Z,117.83
2018-02-21T09:20:26.495Z,108.40
2018-02-21T09:22:55.695Z,100.43
2018-02-21T09:25:24.735Z,87.20
2018-02-21T09:27:52.986Z,89.97
2018-02-21T09:30:21.264Z,101.57
2018-02-21T09:32:49.654Z,96.07
2018-02-21T09:35:17.925Z,103.73
2018-02-21T09:37:46.210Z,95.33
2018-02-21T09:40:14.475Z,107.60
2018-02-21T09:42:42.727Z,103.73
2018-02-21T09:45:10.995Z,126.30
2018-02-21T09:47:40.055Z,100.40
2018-02-21T09:50:08.302Z,92.83
2018-02-21T09:52:37.364Z,93.83
2018-02-21T09:55:05.644Z,85.70
2018-02-21T09:57:33.846Z,94.20
2018-02-21T10:00:02.118Z,92.63
2018-02-21T10:02:31.181Z,99.80
2018-02-21T10:04:59.464Z,108.53
2018-02-21T10:07:27.717Z,112.43
2018-02-21T10:09:55.975Z,92.87
2018-02-21T10:12:24.224Z,112.17
2018-02-21T10:14:53.224Z,122.83
2018-02-21T10:17:21.492Z,95.07
2018-02-21T10:19:49.780Z,110.63
2018-02-21T10:22:18.039Z,108.87
2018-02-21T10:24:47.072Z,113.83
2018-02-21T10:27:15.652Z,84.50
2018-02-21T10:29:43.888Z,119.90
2018-02-21T10:32:13.481Z,99.77
2018-02-21T10:34:41.738Z,97.80
2018-02-21T10:37:10.089Z,130.23
2018-02-21T10:39:39.098Z,89.57
2018-02-21T10:42:07.334Z,96.97
2018-02-21T10:44:36.402Z,100.57
2018-02-21T10:47:05.617Z,136.97
2018-02-21T10:49:34.661Z,97.57
2018-02-21T10:52:02.949Z,76.90
2018-02-21T10:54:31.223Z,99.47
2018-02-21T10:56:59.478Z,88.53
2018-02-21T10:59:28.501Z,85.30
2018-02-21T11:01:56.764Z,84.33
2018-02-21T11:04:25.017Z,96.97
2018-02-21T11:06:53.291Z,80.67
2018-02-21T11:09:22.335Z,83.40
2018-02-21T11:11:50.635Z,79.77
2018-02-21T11:14:18.914Z,89.70
2018-02-21T11:16:49.282Z,105.67
2018-02-21T11:19:17.543Z,86.83
2018-02-21T11:21:46.828Z,151.60
2018-02-21T11:24:15.124Z,74.07
2018-02-21T11:26:43.375Z,100.13
2018-02-21T11:29:11.759Z,96.17
2018-02-21T11:31:40.046Z,110.87
2018-02-21T11:34:10.014Z,101.83
2018-02-21T11:36:38.260Z,109.57
2018-02-21T11:39:06.514Z,100.07
2018-02-21T11:41:34.814Z,119.80
2018-02-21T11:44:03.166Z,101.97
2018-02-21T11:46:31.426Z,117.83
2018-02-21T11:48:59.716Z,106.03
2018-02-21T11:51:29.182Z,109.53
2018-02-21T11:53:57.424Z,120.77
2018-02-21T11:56:25.702Z,128.60
2018-02-21T11:58:54.059Z,105.20
2018-02-21T12:01:22.324Z,111.30
2018-02-21T12:03:50.630Z,101.43
2018-02-21T12:06:18.899Z,117.13
2018-02-21T12:08:48.692Z,103.10
2018-02-21T12:11:16.937Z,105.50
2018-02-21T12:13:45.228Z,104.60
2018-02-21T12:16:13.495Z,96.37
2018-02-21T12:18:41.776Z,104.03
2018-02-21T12:21:10.072Z,97.23
2018-02-21T12:23:38.323Z,96.67
2018-02-21T12:26:06.603Z,90.40
2018-02-21T12:28:34.847Z,91.77
2018-02-21T12:31:03.149Z,94.90
2018-02-21T12:33:31.427Z,94.20
2018-02-21T12:35:59.704Z,94.60
2018-02-21T12:38:27.949Z,104.17
2018-02-21T12:41:02.743Z,96.17
2018-02-21T12:43:31.008Z,71.23
2018-02-21T12:45:59.289Z,88.13
2018-02-21T12:48:27.598Z,81.33
2018-02-21T12:50:56.556Z,78.43
2018-02-21T12:53:24.834Z,84.93
2018-02-21T12:55:53.086Z,86.73
2018-02-21T12:58:21.321Z,80.57
2018-02-21T13:00:50.383Z,77.90
2018-02-21T13:03:18.665Z,84.10
2018-02-21T13:05:46.924Z,79.77
2018-02-21T13:08:15.192Z,78.60
2018-02-21T13:10:43.455Z,83.70
2018-02-21T13:13:12.539Z,78.83
2018-02-21T13:15:41.588Z,81.33
2018-02-21T13:18:09.872Z,91.27
2018-02-21T13:20:38.137Z,85.70
2018-02-21T13:23:06.465Z,77.27
2018-02-21T13:25:35.497Z,81.30
2018-02-21T13:28:03.755Z,94.90
2018-02-21T13:30:32.046Z,65.53
2018-02-21T13:33:00.342Z,75.27
2018-02-21T13:35:28.723Z,78.83
2018-02-21T13:37:56.963Z,82.53
2018-02-21T13:40:25.253Z,74.63
2018-02-21T13:42:53.489Z,71.83
2018-02-21T13:45:23.279Z,103.57
2018-02-21T13:47:51.553Z,57.87
2018-02-21T13:50:19.876Z,70.63
2018-02-21T13:52:48.114Z,80.33
2018-02-21T13:55:16.398Z,71.37
2018-02-21T13:57:44.659Z,60.07
2018-02-21T14:00:12.922Z,71.83
2018-02-21T14:02:41.180Z,64.40
2018-02-21T14:05:10.216Z,68.37
2018-02-21T14:07:38.524Z,61.60
2018-02-21T14:10:06.806Z,63.00
2018-02-21T14:12:35.495Z,57.50
2018-02-21T14:15:03.738Z,63.57
2018-02-21T14:17:32.073Z,59.63
2018-02-21T14:20:00.298Z,65.03
2018-02-21T14:22:29.081Z,66.03
2018-02-21T14:24:57.365Z,70.93
2018-02-21T14:27:25.625Z,51.67
2018-02-21T14:29:54.037Z,57.03
2018-02-21T14:32:22.297Z,62.50
2018-02-21T14:34:50.570Z,83.43
2018-02-21T14:37:18.879Z,74.20
2018-02-21T14:39:47.113Z,71.67
2018-02-21T14:42:15.506Z,73.73
2018-02-21T14:44:43.749Z,59.80
2018-02-21T14:47:12.218Z,60.93
2018-02-21T14:49:40.500Z,57.90
2018-02-21T14:52:09.661Z,57.80
2018-02-21T14:54:37.916Z,61.63
2018-02-21T14:57:06.327Z,53.17
2018-02-21T14:59:34.576Z,53.33
2018-02-21T15:02:02.822Z,59.73
2018-02-21T15:04:31.115Z,49.70
2018-02-21T15:06:59.388Z,54.80
2018-02-21T15:09:27.674Z,50.00
2018-02-21T15:11:55.963Z,60.33
2018-02-21T15:14:25.258Z,135.03
2018-02-21T15:16:53.520Z,66.37
2018-02-21T15:19:21.798Z,70.67
2018-02-21T15:21:50.070Z,64.57
2018-02-21T15:24:18.385Z,71.23
2018-02-21T15:26:46.649Z,62.23
2018-02-21T15:29:14.911Z,60.90
2018-02-21T15:31:43.225Z,59.30
2018-02-21T15:34:11.917Z,62.10
2018-02-21T15:36:40.178Z,46.97
2018-02-21T15:39:08.493Z,56.33
2018-02-21T15:41:36.931Z,66.70
2018-02-21T15:44:05.333Z,55.83
2018-02-21T15:46:33.588Z,69.77
2018-02-21T15:49:01.854Z,48.53
2018-02-21T15:51:30.269Z,60.50
2018-02-21T15:53:58.562Z,46.83
2018-02-21T15:56:27.588Z,61.27
2018-02-21T15:58:55.887Z,55.57
2018-02-21T16:01:24.733Z,58.03
2018-02-21T16:03:54.855Z,54.60
2018-02-21T16:06:24.195Z,55.03
2018-02-21T16:08:52.440Z,53.63
2018-02-21T16:11:20.751Z,48.73
2018-02-21T16:13:49.060Z,51.63
2018-02-21T16:16:17.343Z,48.37
2018-02-21T16:18:45.617Z,44.87
2018-02-21T16:21:13.989Z,108.90
2018-02-21T16:23:42.219Z,55.57
2018-02-21T16:26:10.508Z,60.33
2018-02-21T16:28:38.840Z,48.07
2018-02-21T16:31:07.902Z,45.90
2018-02-21T16:33:36.183Z,56.37
2018-02-21T16:36:04.475Z,42.90
2018-02-21T16:38:32.764Z,54.93
2018-02-21T16:41:01.905Z,53.77
2018-02-21T16:43:30.377Z,55.70
2018-02-21T16:45:58.722Z,53.50
2018-02-21T16:48:26.969Z,52.50
2018-02-21T16:50:55.302Z,66.10
2018-02-21T16:53:23.574Z,47.23
2018-02-21T16:55:51.915Z,52.77
2018-02-21T16:58:20.303Z,58.50
2018-02-21T17:00:48.565Z,57.30
2018-02-21T17:03:16.919Z,60.70
2018-02-21T17:05:45.227Z,55.77
2018-02-21T17:08:13.538Z,64.43
2018-02-21T17:10:41.812Z,51.60
2018-02-21T17:13:10.897Z,54.50
2018-02-21T17:15:39.290Z,52.07
2018-02-21T17:18:07.605Z,52.20
2018-02-21T17:20:35.958Z,57.47
2018-02-21T17:23:05.051Z,52.93
2018-02-21T17:25:34.106Z,61.60
2018-02-21T17:28:02.428Z,57.07
2018-02-21T17:30:30.775Z,58.50
2018-02-21T17:32:59.035Z,54.17
2018-02-21T17:35:27.330Z,65.07
2018-02-21T17:37:55.623Z,52.90
2018-02-21T17:40:23.885Z,58.17
2018-02-21T17:42:52.203Z,64.07
2018-02-21T17:45:20.503Z,57.30
2018-02-21T17:47:50.168Z,56.37
2018-02-21T17:50:22.422Z,57.40
2018-02-21T17:52:51.944Z,62.17
2018-02-21T17:55:35.733Z,55.37
2018-02-21T17:58:04.745Z,56.43
2018-02-21T18:00:33.028Z,71.23
2018-02-21T18:03:05.637Z,44.37
2018-02-21T18:05:37.512Z,67.10
2018-02-21T18:08:07.978Z,66.60
2018-02-21T18:10:37.521Z,60.13
2018-02-21T18:13:08.575Z,61.37
2018-02-21T18:15:40.133Z,70.73
2018-02-21T18:18:08.934Z,59.87
2018-02-21T18:20:41.592Z,64.60
2018-02-21T18:23:09.968Z,60.87
2018-02-21T18:25:38.271Z,64.20
2018-02-21T18:28:08.039Z,66.20
2018-02-21T18:30:36.337Z,56.37
2018-02-21T18:33:04.683Z,58.17
2018-02-21T18:35:32.992Z,64.77
2018-02-21T18:38:01.306Z,63.10
2018-02-21T18:40:30.400Z,55.80
2018-02-21T18:42:59.486Z,63.13
2018-02-21T18:45:27.738Z,58.63
2018-02-21T18:47:56.057Z,67.00
2018-02-21T18:50:24.309Z,69.53
2018-02-21T18:52:53.396Z,56.10
2018-02-21T18:55:22.012Z,60.90
2018-02-21T18:57:51.097Z,77.80
2018-02-21T19:00:19.385Z,62.50
2018-02-21T19:02:48.367Z,65.97
2018-02-21T19:05:16.654Z,76.10
2018-02-21T19:07:45.888Z,62.00
2018-02-21T19:10:14.328Z,71.33
2018-02-21T19:12:42.592Z,67.97
2018-02-21T19:15:10.862Z,66.50
2018-02-21T19:17:39.980Z,61.23
2018-02-21T19:20:08.320Z,63.03
2018-02-21T19:22:36.758Z,57.90
2018-02-21T19:25:05.027Z,72.87
2018-02-21T19:27:33.375Z,75.47
2018-02-21T19:30:01.700Z,67.77
2018-02-21T19:32:30.871Z,81.70
2018-02-21T19:35:00.269Z,70.63
2018-02-21T19:37:28.581Z,65.50
2018-02-21T19:39:57.688Z,72.90
2018-02-21T19:42:26.116Z,71.57
2018-02-21T19:44:54.755Z,57.40
2018-02-21T19:47:23.039Z,57.77
2018-02-21T19:49:51.350Z,64.67
2018-02-21T19:52:19.659Z,85.90
2018-02-21T19:54:47.932Z,65.23
2018-02-21T19:57:16.402Z,66.33
2018-02-21T19:59:44.679Z,73.13
2018-02-21T20:02:13.068Z,67.07
2018-02-21T20:04:41.377Z,61.23
2018-02-21T20:07:09.728Z,70.93
2018-02-21T20:09:38.165Z,72.57
2018-02-21T20:12:06.490Z,75.93
2018-02-21T20:14:34.723Z,60.43
2018-02-21T20:17:03.049Z,63.63
2018-02-21T20:19:31.336Z,75.57
2018-02-21T20:22:00.352Z,60.17
2018-02-21T20:24:28.658Z,60.77
2018-02-21T20:26:57.457Z,59.27
2018-02-21T20:29:26.479Z,58.37
2018-02-21T20:31:54.801Z,59.50
2018-02-21T20:34:23.842Z,56.80
2018-02-21T20:36:52.160Z,70.50
2018-02-21T20:39:21.209Z,65.37
2018-02-21T20:41:49.527Z,57.23
2018-02-21T20:44:18.213Z,51.37
2018-02-21T20:46:48.207Z,63.07
2018-02-21T20:49:16.608Z,66.57
2018-02-21T20:51:45.668Z,56.57
2018-02-21T20:54:14.730Z,57.53
2018-02-21T20:56:43.019Z,63.80
2018-02-21T20:59:11.390Z,58.20
2018-02-21T21:01:39.726Z,55.77
2018-02-21T21:04:08.061Z,65.33
2018-02-21T21:06:36.928Z,62.00
2018-02-21T21:09:05.271Z,58.03
2018-02-21T21:11:33.569Z,55.60
2018-02-21T21:14:02.736Z,47.07
2018-02-21T21:16:32.594Z,66.23
2018-02-21T21:19:01.653Z,48.57
2018-02-21T21:21:29.918Z,51.63
2018-02-21T21:23:58.234Z,55.10
2018-02-21T21:26:27.293Z,55.73
2018-02-21T21:28:55.775Z,41.57
2018-02-21T21:31:24.089Z,54.30
2018-02-21T21:33:53.172Z,59.37
2018-02-21T21:36:21.657Z,47.13
2018-02-21T21:38:49.982Z,50.30
2018-02-21T21:41:18.304Z,56.60
2018-02-21T21:43:47.382Z,54.33
2018-02-21T21:46:16.530Z,52.83
2018-02-21T21:48:44.806Z,51.70
2018-02-21T21:51:13.146Z,50.63
2018-02-21T21:53:41.484Z,47.43
2018-02-21T21:56:10.624Z,47.97
2018-02-21T21:58:38.963Z,49.50
2018-02-21T22:01:07.278Z,57.13
2018-02-21T22:03:35.597Z,49.83
2018-02-21T22:06:03.880Z,57.50
2018-02-21T22:08:32.188Z,49.50
2018-02-21T22:11:00.501Z,48.37
2018-02-21T22:13:29.578Z,47.60
2018-02-21T22:15:57.838Z,47.90
2018-02-21T22:18:26.122Z,41.13
2018-02-21T22:20:54.405Z,48.73
2018-02-21T22:23:23.673Z,48.80
2018-02-21T22:25:52.014Z,57.80
2018-02-21T22:28:20.337Z,48.30
2018-02-21T22:30:48.633Z,48.87
2018-02-21T22:33:16.922Z,41.50
2018-02-21T22:35:45.138Z,70.33
2018-02-21T22:38:14.215Z,45.40
2018-02-21T22:40:42.482Z,48.83
2018-02-21T22:43:11.665Z,49.13
2018-02-21T22:45:39.934Z,52.07
2018-02-21T22:48:08.226Z,48.63
2018-02-21T22:50:36.518Z,44.43
2018-02-21T22:53:04.786Z,51.40
2018-02-21T22:55:34.062Z,56.03
2018-02-21T22:58:02.346Z,63.33
2018-02-21T23:00:33.483Z,54.93
2018-02-21T23:03:03.030Z,52.60
2018-02-21T23:05:31.302Z,48.33
2018-02-21T23:07:59.574Z,53.23
2018-02-21T23:10:27.841Z,53.40
2018-02-21T23:12:56.111Z,44.80
2018-02-21T23:15:24.388Z,47.77
2018-02-21T23:17:52.649Z,54.60
2018-02-21T23:20:20.922Z,50.53
2018-02-21T23:22:49.436Z,49.60
2018-02-21T23:25:17.680Z,53.97
2018-02-21T23:27:46.002Z,44.67
2018-02-21T23:30:14.242Z,50.63
2018-02-21T23:32:42.510Z,50.07
2018-02-21T23:35:10.787Z,49.20
2018-02-21T23:37:39.251Z,57.40
2018-02-21T23:40:08.291Z,55.30
2018-02-21T23:42:36.570Z,53.27
2018-02-21T23:45:04.829Z,56.80
2018-02-21T23:47:33.109Z,53.77
2018-02-21T23:50:01.373Z,57.37
2018-02-21T23:52:29.641Z,45.83
2018-02-21T23:54:57.919Z,62.17
2018-02-21T23:57:26.177Z,49.50
2018-02-21T23:59:55.224Z,50.67
